Atmore, AL (36503)

2:52 PM CST on February 09, 2016 (GMT -0600)
B.E.C. | | Change Station
CLOSE
Current Station
Personal Weather Station
Location: Atmore, AL
Elevation: 272 ft
Nearby Weather Stations
Active Advisory: Wind Advisory

Elev 272 ft 31.07 °N, 87.37 °W | Updated 5 minutes ago

Clear
Clear
51.6 °F
Feels Like 51.6 °F
N
1.0
Wind Variable Wind from West
Gusts 24.0 mph

Today
High -- | Low -- °F
--% Chance of Precip.
Yesterday
High -- | Low -- °F
Precip. -- in
Pressure 29.95 in
Visibility 10.0 miles
Clouds Clear
Dew Point 24 °F
Humidity 34%
Rainfall 0.00 in
Snow Depth Not available.
6:36 AM 5:32 PM
New Moon, 2% visible
METAR KNSE 091956Z 28024G31KT 10SM CLR 11/M10 A2998 RMK AO2 PK WND 27031/1953 SLP140 T01061100 $
Pressure 29.95 in
Visibility 10.0 miles
Clouds Clear
Dew Point 24 °F
Humidity 34%
Rainfall 0.00 in
Snow Depth Not available.
6:36 AM 5:32 PM
New Moon, 2% visible
METAR KNSE 091956Z 28024G31KT 10SM CLR 11/M10 A2998 RMK AO2 PK WND 27031/1953 SLP140 T01061100 $

10-Day Weather Forecast

Almanac

Astronomy

Feb. 09, 2016 Rise Set
Actual Time
Civil Twilight
Nautical Twilight
Astronomical Twilight
Moon
Length of Visible Light
Length of Day
Tomorrow will be .
, % of the Moon is Illuminated

Today's Extremes

State Highs State Lows

Community

WunderPhotos

Upload Photos

1,891,683 photos uploaded!

WunderBlog® & News

Nearby

Air Quality

  Air Quality AQ Index Pollutant
Not available.

Snow Depth

Station Depth Elevation

Earthquake Activity

City Distance Mag. Time & Date
Minimum magnitude displayed is 2.5.

Coastal Water Temperatures

Place Temperature

Stations

Nearby Weather Stations

Station Location Temp. Windchill Dew Point Humidity Wind Precip. Elev Updated Type
                   

Watches & Warnings

Wind Advisory
Issued: 9:22 AM CST Feb. 9, 2016 – National Weather Service

... Wind Advisory remains in effect until 5 PM CST this
afternoon...

* timing... mid morning through late afternoon.

* Winds... west to northwest winds increasing to 20 to 25 mph
with frequent higher gusts in excess of 30 mph.

Precautionary/preparedness actions...

A Wind Advisory means that winds of 30 to 39 mph are expected.
Winds this strong can make driving difficult... especially for
high profile vehicles. Use extra caution.